Aspen, Colorado
Current Conditions -  °F | °C
As of 9:53 AM on Friday 21 Nov 2014 (Local Time) from KASE Reporting Station
Clear Clear  
Wind Chill: -1°   Ceiling: Unl
Heat Index: -1°   Visibility: 10mi
Dew Point: -9°   Wind: 0mph
Humidity: 52%   Direction: NA
Pressure: 30.1"   Gusts: NA
Location:  39.19°N, 106.81°W
Report Text: KASE 211653Z 00000KT 10SM CLR M01/M09 A3010 RMK AO2 SLP186 T10061094
Loading
Personal Weather Stations






























Interactive Weather Map New forecast layout! Learn more

10-Day Weather Forecast

Advertisements
Track Severe Weather on mobile